Tessalit, Mali
Current Conditions -  °F | °C
As of 4:30 PM on Friday 21 Nov 2014 (Local Time) from DAAT Reporting Station
Scattered Clouds Scattered Clouds  
Wind Chill: 75°   Ceiling: Unl
Heat Index: 75°   Visibility: 6mi
Dew Point: 28°   Wind: 10mph
Humidity: 18%   Direction: 130°SE
Pressure: 30.18"   Gusts: NA
Location:  20.28°N, 0.98°E
Report Text: DAAT 211630Z 13009KT 9999 SCT053 SCT100 24/M02 Q1022
Loading
Personal Weather Stations






























Interactive Weather Map New forecast layout! Learn more

10-Day Weather Forecast

Advertisements
Track Severe Weather on mobile